Time;durP1;ratioP1;P1;durP2;ratioP2;P2;SDS_P1;SDS_P2;PMS_P1;PMS_P2;Temp;Humidity;BMP_temperature;BMP_pressure;BME280_temperature;BME280_humidity;BME280_pressure;Samples;Min_cycle;Max_cycle;Signal;HPM_P1;HPM_P2
2021/01/16 00:00:49;;;;;;;10.35;6.97;;;;;;;19.58;36.85;101306.38;5061503;28;20116;-75
2021/01/16 00:03:15;;;;;;;9.75;6.18;;;;;;;19.57;37.09;101310.75;5053585;28;20048;-76
2021/01/16 00:05:42;;;;;;;10.35;7.07;;;;;;;19.57;37.02;101318.66;5051321;28;20040;-73
2021/01/16 00:08:10;;;;;;;10.27;6.18;;;;;;;19.57;36.95;101312.50;5054466;28;20032;-74
2021/01/16 00:10:39;;;;;;;10.20;6.25;;;;;;;19.56;36.96;101310.75;5062757;28;20521;-73
2021/01/16 00:13:05;;;;;;;10.88;6.80;;;;;;;19.56;36.92;101314.28;5058152;28;20035;-75
2021/01/16 00:15:31;;;;;;;12.43;7.65;;;;;;;19.55;36.78;101315.16;5058599;28;20032;-75
2021/01/16 00:18:04;;;;;;;10.05;6.82;;;;;;;19.55;36.78;101309.00;5063340;28;20428;-75
2021/01/16 00:20:34;;;;;;;12.95;6.70;;;;;;;19.56;36.82;101318.63;5054745;28;21897;-74
2021/01/16 00:23:00;;;;;;;9.70;6.75;;;;;;;19.57;36.99;101307.25;5057304;28;20087;-74
2021/01/16 00:25:26;;;;;;;10.73;7.32;;;;;;;19.56;36.95;101300.22;5053644;28;20045;-74
2021/01/16 00:27:51;;;;;;;11.40;6.57;;;;;;;19.57;36.78;101302.88;5056275;28;20086;-74
2021/01/16 00:30:19;;;;;;;10.30;7.20;;;;;;;19.56;36.97;101292.34;5057546;28;20032;-75
2021/01/16 00:32:45;;;;;;;10.52;6.97;;;;;;;19.56;36.76;101285.34;5064887;28;20091;-75
2021/01/16 00:35:14;;;;;;;10.25;6.82;;;;;;;19.55;36.65;101286.22;5059792;28;20435;-72
2021/01/16 00:37:41;;;;;;;10.93;6.80;;;;;;;19.57;36.87;101291.47;5058927;28;20071;-73
2021/01/16 00:40:10;;;;;;;9.40;6.32;;;;;;;19.57;36.94;101295.00;5062518;28;20025;-75
2021/01/16 00:42:46;;;;;;;8.90;6.10;;;;;;;19.54;36.76;101296.75;5059646;28;20044;-75
2021/01/16 00:45:13;;;;;;;8.32;5.90;;;;;;;19.58;37.00;101293.22;5059163;28;20033;-73
2021/01/16 00:47:40;;;;;;;9.45;7.13;;;;;;;19.57;36.95;101288.84;5063331;28;20031;-75
2021/01/16 00:50:09;;;;;;;10.40;6.65;;;;;;;19.56;36.88;101293.25;5072315;28;20024;-73
2021/01/16 00:52:35;;;;;;;9.93;6.70;;;;;;;19.55;36.71;101287.97;5070469;28;20036;-75
2021/01/16 00:55:02;;;;;;;8.73;6.13;;;;;;;19.55;36.87;101291.47;5061476;28;20068;-74
2021/01/16 00:57:27;;;;;;;10.38;6.57;;;;;;;19.56;37.10;101292.34;5053110;28;20538;-75
2021/01/16 00:59:53;;;;;;;9.63;6.18;;;;;;;19.56;36.84;101292.34;5064507;28;20044;-76
2021/01/16 01:02:19;;;;;;;7.80;5.53;;;;;;;19.55;37.04;101288.84;5056789;28;20033;-76
2021/01/16 01:04:45;;;;;;;8.00;5.90;;;;;;;19.54;36.91;101287.09;5059670;28;20033;-72
2021/01/16 01:07:11;;;;;;;9.98;6.05;;;;;;;19.56;36.93;101292.34;5062471;28;20073;-74
2021/01/16 01:09:39;;;;;;;10.43;6.15;;;;;;;19.55;36.93;101294.13;5062811;28;20029;-73
2021/01/16 01:12:06;;;;;;;10.20;5.75;;;;;;;19.55;36.95;101287.97;5056389;28;20040;-73
2021/01/16 01:14:32;;;;;;;9.73;6.03;;;;;;;19.55;36.58;101285.34;5057393;28;20025;-74
2021/01/16 01:16:57;;;;;;;8.68;5.80;;;;;;;19.56;36.79;101287.09;5061005;28;20382;-75
2021/01/16 01:19:23;;;;;;;9.70;6.45;;;;;;;19.55;37.02;101277.44;5061363;28;20533;-73
2021/01/16 01:21:48;;;;;;;10.07;6.00;;;;;;;19.54;37.03;101273.97;5057020;28;20033;-75
2021/01/16 01:24:14;;;;;;;9.80;6.35;;;;;;;19.54;36.87;101278.34;5060253;28;20575;-74
2021/01/16 01:26:39;;;;;;;8.50;5.55;;;;;;;19.54;36.80;101276.59;5058185;28;20086;-75
2021/01/16 01:29:05;;;;;;;10.32;6.22;;;;;;;19.54;36.90;101278.34;5059735;28;20082;-73
2021/01/16 01:31:31;;;;;;;7.97;6.13;;;;;;;19.54;36.87;101276.59;5054816;28;20508;-73
2021/01/16 01:33:56;;;;;;;7.55;5.32;;;;;;;19.53;36.87;101274.84;5060376;28;20025;-72
2021/01/16 01:36:22;;;;;;;7.85;5.63;;;;;;;19.52;36.83;101270.44;5061922;28;20048;-73
2021/01/16 01:38:47;;;;;;;8.90;6.53;;;;;;;19.53;36.83;101282.72;5060696;28;20115;-75
2021/01/16 01:41:13;;;;;;;7.68;5.82;;;;;;;19.52;36.78;101270.44;5061832;28;20108;-74
2021/01/16 01:43:38;;;;;;;8.90;5.85;;;;;;;19.53;36.90;101276.59;5064850;28;20025;-76
2021/01/16 01:46:04;;;;;;;8.38;5.40;;;;;;;19.53;36.62;101261.69;5065318;28;20037;-74
2021/01/16 01:48:31;;;;;;;7.63;4.97;;;;;;;19.53;36.88;101276.59;5063639;28;20071;-75
2021/01/16 01:51:00;;;;;;;8.48;6.00;;;;;;;19.53;36.92;101281.84;5065822;28;20033;-75
2021/01/16 01:53:28;;;;;;;7.53;5.40;;;;;;;19.53;36.97;101279.22;5066474;28;20029;-74
2021/01/16 01:55:57;;;;;;;7.18;5.03;;;;;;;19.53;36.87;101260.81;5065400;28;20029;-75
2021/01/16 01:58:25;;;;;;;7.50;5.45;;;;;;;19.54;36.88;101255.56;5064821;28;20048;-74
2021/01/16 02:00:54;;;;;;;6.55;5.10;;;;;;;19.54;36.98;101249.44;5067257;28;20061;-72
2021/01/16 02:03:23;;;;;;;9.48;5.28;;;;;;;19.53;36.85;101247.69;5066364;28;20041;-76
2021/01/16 02:05:56;;;;;;;7.57;5.82;;;;;;;19.53;36.83;101245.06;5066799;28;20093;-73
2021/01/16 02:08:22;;;;;;;7.63;4.97;;;;;;;19.53;36.62;101251.16;5065952;28;20520;-72
2021/01/16 02:10:47;;;;;;;8.15;5.55;;;;;;;19.53;36.90;101255.56;5065587;28;20104;-73
2021/01/16 02:13:14;;;;;;;7.18;5.45;;;;;;;19.54;36.82;101257.31;5065993;28;20028;-73
2021/01/16 02:15:44;;;;;;;9.13;5.70;;;;;;;19.52;36.83;101253.81;5065409;28;20029;-73
2021/01/16 02:18:26;;;;;;;7.40;5.20;;;;;;;19.53;36.87;101250.31;5065710;28;20043;-75
2021/01/16 02:20:54;;;;;;;7.88;5.35;;;;;;;19.53;36.76;101250.31;5065809;28;20788;-73
2021/01/16 02:23:30;;;;;;;8.93;5.60;;;;;;;19.53;36.87;101248.53;5066008;28;20082;-74
2021/01/16 02:26:17;;;;;;;8.00;5.15;;;;;;;19.51;36.78;101247.66;5064320;28;20464;-75
2021/01/16 02:28:56;;;;;;;6.75;4.95;;;;;;;19.52;36.79;101249.41;5063502;28;20044;-74
2021/01/16 02:31:32;;;;;;;7.10;4.90;;;;;;;19.52;36.78;101243.31;5061153;28;20056;-74
2021/01/16 02:33:59;;;;;;;8.55;5.05;;;;;;;19.53;36.82;101245.06;5065978;28;20268;-73
2021/01/16 02:36:34;;;;;;;7.20;5.15;;;;;;;19.53;36.89;101245.06;5066334;28;20500;-74
2021/01/16 02:39:22;;;;;;;6.60;5.40;;;;;;;19.52;36.79;101235.41;5065504;28;20492;-77
2021/01/16 02:41:53;;;;;;;6.70;4.95;;;;;;;19.49;36.73;101236.28;5065273;28;20139;-75
2021/01/16 02:44:33;;;;;;;7.95;5.50;;;;;;;19.52;36.90;101232.78;5063964;28;20122;-76
2021/01/16 02:47:03;;;;;;;7.28;5.13;;;;;;;19.52;36.76;101232.78;5065869;28;20531;-74
2021/01/16 02:49:37;;;;;;;8.77;5.57;;;;;;;19.52;36.76;101238.03;5063453;28;20063;-74
2021/01/16 02:52:17;;;;;;;8.88;5.30;;;;;;;19.53;36.89;101242.41;5067490;28;20035;-73
2021/01/16 02:54:43;;;;;;;7.00;5.07;;;;;;;19.51;36.78;101231.88;5066724;28;20032;-73
2021/01/16 02:57:10;;;;;;;7.15;5.10;;;;;;;19.52;36.69;101235.41;5066771;28;20398;-75
2021/01/16 02:59:41;;;;;;;7.57;5.20;;;;;;;19.52;36.62;101240.66;5065916;28;20144;-73
2021/01/16 03:02:09;;;;;;;7.40;5.00;;;;;;;19.52;36.65;101224.91;5067314;28;20021;-74
2021/01/16 03:04:36;;;;;;;7.05;5.10;;;;;;;19.52;36.88;101235.41;5067966;28;20055;-73
2021/01/16 03:07:03;;;;;;;6.72;5.10;;;;;;;19.52;36.88;101230.16;5068044;28;20036;-74
2021/01/16 03:09:29;;;;;;;8.13;5.07;;;;;;;19.52;36.66;101232.78;5067774;28;20107;-73
2021/01/16 03:11:56;;;;;;;7.78;5.18;;;;;;;19.52;36.85;101227.53;5067652;28;20028;-73
2021/01/16 03:14:26;;;;;;;6.93;4.65;;;;;;;19.53;36.91;101230.13;5068009;28;20060;-74
2021/01/16 03:16:57;;;;;;;7.70;4.95;;;;;;;19.52;36.88;101233.66;5067440;28;20493;-73
2021/01/16 03:19:29;;;;;;;6.55;4.80;;;;;;;19.51;36.79;101225.78;5067470;28;20406;-74
2021/01/16 03:21:54;;;;;;;6.80;4.88;;;;;;;19.51;36.95;101231.88;5067957;28;20038;-73
2021/01/16 03:24:20;;;;;;;7.68;5.47;;;;;;;19.51;36.57;101237.16;5065463;28;20111;-75
2021/01/16 03:26:45;;;;;;;7.68;5.22;;;;;;;19.52;36.81;101231.00;5065810;28;20052;-73
2021/01/16 03:29:11;;;;;;;6.65;5.13;;;;;;;19.51;37.03;101231.88;5067021;28;20110;-73
2021/01/16 03:31:37;;;;;;;7.35;5.18;;;;;;;19.52;36.77;101222.28;5067531;28;20041;-73
2021/01/16 03:34:02;;;;;;;7.55;5.47;;;;;;;19.52;36.89;101222.28;5065902;28;20138;-74
2021/01/16 03:36:27;;;;;;;6.88;5.13;;;;;;;19.51;36.66;101216.13;5066106;28;20397;-73
2021/01/16 03:38:53;;;;;;;7.70;5.20;;;;;;;19.50;36.59;101218.75;5063313;28;20040;-74
2021/01/16 03:41:18;;;;;;;8.60;4.90;;;;;;;19.52;36.78;101219.63;5064019;28;20112;-75
2021/01/16 03:43:44;;;;;;;6.70;5.30;;;;;;;19.51;36.73;101216.13;5065921;28;20032;-74
2021/01/16 03:46:09;;;;;;;6.47;4.82;;;;;;;19.51;36.83;101210.84;5066112;28;20119;-74
2021/01/16 03:48:35;;;;;;;9.73;5.70;;;;;;;19.52;36.81;101203.88;5065521;28;20032;-74
2021/01/16 03:51:00;;;;;;;6.70;5.03;;;;;;;19.52;36.89;101209.13;5066038;28;20077;-73
2021/01/16 03:53:26;;;;;;;7.30;5.07;;;;;;;19.50;36.73;101209.09;5066300;28;20090;-74
2021/01/16 03:55:51;;;;;;;6.70;4.97;;;;;;;19.50;36.92;101210.88;5066027;28;20075;-74
2021/01/16 03:58:16;;;;;;;7.85;4.75;;;;;;;19.52;36.75;101211.75;5065744;28;20040;-73
2021/01/16 04:00:42;;;;;;;6.95;4.80;;;;;;;19.52;36.70;101202.09;5063580;28;20162;-73
2021/01/16 04:03:07;;;;;;;6.82;4.80;;;;;;;19.51;36.73;101200.34;5066069;28;20060;-75
2021/01/16 04:05:33;;;;;;;7.32;5.03;;;;;;;19.52;36.81;101203.88;5065859;28;20048;-73
2021/01/16 04:07:58;;;;;;;6.80;4.88;;;;;;;19.51;36.88;101205.59;5063226;28;20116;-73
2021/01/16 04:10:23;;;;;;;7.43;4.80;;;;;;;19.51;36.65;101191.59;5070064;28;20125;-73
2021/01/16 04:12:49;;;;;;;6.72;5.03;;;;;;;19.51;36.75;101187.19;5066420;28;20119;-75
2021/01/16 04:15:14;;;;;;;9.38;5.85;;;;;;;19.51;36.78;101195.09;5070871;28;20119;-73
2021/01/16 04:17:40;;;;;;;8.80;5.50;;;;;;;19.50;36.72;101188.06;5054871;28;20461;-74
2021/01/16 04:20:06;;;;;;;8.02;5.47;;;;;;;19.51;36.73;101187.19;5070665;28;20039;-73
2021/01/16 04:22:36;;;;;;;6.65;4.60;;;;;;;19.50;36.73;101180.19;5070022;28;20065;-75
2021/01/16 04:25:02;;;;;;;7.43;5.15;;;;;;;19.51;36.81;101176.69;5071319;28;20052;-73
2021/01/16 04:27:27;;;;;;;7.18;4.60;;;;;;;19.52;36.75;101169.69;5070126;28;20413;-73
2021/01/16 04:29:52;;;;;;;7.90;4.97;;;;;;;19.52;36.88;101167.06;5066787;28;20041;-73
2021/01/16 04:32:19;;;;;;;10.13;5.60;;;;;;;19.50;36.69;101171.44;5068889;28;20039;-75
2021/01/16 04:34:44;;;;;;;6.78;4.18;;;;;;;19.52;36.97;101172.31;5069265;28;20516;-73
2021/01/16 04:37:09;;;;;;;6.72;5.20;;;;;;;19.51;36.82;101174.06;5068928;28;20076;-74
2021/01/16 04:39:35;;;;;;;7.75;4.70;;;;;;;19.50;36.95;101171.44;5066953;28;20150;-74
2021/01/16 04:42:02;;;;;;;6.72;5.20;;;;;;;19.51;36.53;101175.81;5071130;28;20086;-73
2021/01/16 04:44:33;;;;;;;8.20;5.30;;;;;;;19.50;36.82;101171.44;5070741;28;20194;-77
2021/01/16 04:46:59;;;;;;;7.60;5.05;;;;;;;19.49;36.82;101170.56;5070612;28;20037;-77
2021/01/16 04:49:25;;;;;;;6.28;4.40;;;;;;;19.49;36.60;101170.56;5068118;28;20048;-76
2021/01/16 04:51:52;;;;;;;8.02;5.18;;;;;;;19.51;36.81;101166.16;5070566;28;20510;-73
2021/01/16 04:54:18;;;;;;;8.70;5.05;;;;;;;19.50;36.78;101166.19;5068659;28;20032;-74
2021/01/16 04:56:47;;;;;;;7.68;5.10;;;;;;;19.48;36.77;101164.44;5066611;28;20043;-75
2021/01/16 04:59:13;;;;;;;7.45;4.70;;;;;;;19.50;36.70;101153.91;5069782;28;20033;-74
2021/01/16 05:01:39;;;;;;;6.70;5.22;;;;;;;19.53;36.74;101163.56;5070212;28;20103;-74
2021/01/16 05:04:07;;;;;;;7.40;5.22;;;;;;;19.52;36.63;101149.50;5069667;28;20032;-75
2021/01/16 05:06:37;;;;;;;6.55;4.82;;;;;;;19.48;36.79;101153.91;5069033;28;20558;-74
2021/01/16 05:09:03;;;;;;;7.75;5.22;;;;;;;19.50;36.71;101155.66;5067592;28;20047;-75
2021/01/16 05:11:40;;;;;;;6.22;4.57;;;;;;;19.48;36.65;101147.78;5069221;28;20039;-74
2021/01/16 05:14:14;;;;;;;7.78;5.22;;;;;;;19.49;36.72;101146.88;5068451;28;20392;-75
2021/01/16 05:16:42;;;;;;;;;;;;;;;19.46;36.72;101145.16;5069531;28;20090;-74
2021/01/16 05:19:15;;;;;;;7.63;5.47;;;;;;;19.44;36.69;101144.28;5067670;28;19927;-75
2021/01/16 05:21:42;;;;;;;7.47;4.70;;;;;;;19.44;36.87;101146.91;5066906;28;20110;-75
2021/01/16 05:24:08;;;;;;;6.47;4.60;;;;;;;19.45;36.76;101137.28;5067350;28;20044;-73
2021/01/16 05:27:00;;;;;;;7.60;5.22;;;;;;;19.45;36.53;101135.53;5065952;28;20029;-73
2021/01/16 05:29:27;;;;;;;7.13;5.53;;;;;;;19.46;36.77;101123.28;5064891;28;20055;-75
2021/01/16 05:31:56;;;;;;;8.15;4.97;;;;;;;19.46;36.59;101124.13;5066041;28;20047;-76
2021/01/16 05:34:26;;;;;;;6.30;4.65;;;;;;;19.47;36.90;101132.88;5063834;28;20523;-74
2021/01/16 05:36:53;;;;;;;6.40;4.65;;;;;;;19.48;36.68;101119.75;5064046;28;20040;-73
2021/01/16 05:39:20;;;;;;;6.93;4.85;;;;;;;19.48;36.67;101119.75;5064532;28;20036;-73
2021/01/16 05:41:46;;;;;;;7.05;4.70;;;;;;;19.49;36.62;101115.34;5065380;28;20036;-73
2021/01/16 05:44:13;;;;;;;6.20;4.72;;;;;;;19.50;36.82;101124.13;5065638;28;20409;-74
2021/01/16 05:46:45;;;;;;;6.72;5.07;;;;;;;19.51;36.52;101110.97;5068331;28;20037;-74
2021/01/16 05:49:17;;;;;;;6.65;4.93;;;;;;;19.48;36.77;101103.97;5066184;28;20090;-73
2021/01/16 05:51:44;;;;;;;6.32;4.45;;;;;;;19.51;36.60;101103.06;5066451;28;20039;-73
2021/01/16 05:54:11;;;;;;;6.45;4.78;;;;;;;19.51;36.82;101097.81;5067121;28;20036;-75
2021/01/16 05:56:38;;;;;;;6.28;5.18;;;;;;;19.49;36.72;101094.31;5065054;28;20032;-75
2021/01/16 05:59:09;;;;;;;6.13;4.78;;;;;;;19.50;36.69;101090.81;5066318;28;20025;-73
2021/01/16 06:01:37;;;;;;;6.32;4.72;;;;;;;19.50;36.77;101092.56;5065726;28;20086;-74
2021/01/16 06:04:03;;;;;;;7.30;5.18;;;;;;;19.48;36.65;101090.81;5063770;28;20059;-75
2021/01/16 06:06:32;;;;;;;7.80;5.00;;;;;;;19.51;36.51;101089.94;5065465;28;20041;-75
2021/01/16 06:08:58;;;;;;;7.90;5.35;;;;;;;19.47;36.64;101083.81;5062248;28;20064;-73
2021/01/16 06:11:23;;;;;;;5.65;4.63;;;;;;;19.48;36.78;101090.81;5056751;28;20061;-73
2021/01/16 06:13:50;;;;;;;6.40;4.57;;;;;;;19.48;36.70;101088.19;5059365;28;20032;-75
2021/01/16 06:16:20;;;;;;;6.78;4.45;;;;;;;19.48;36.65;101082.03;5057977;28;20041;-75
2021/01/16 06:19:06;;;;;;;7.25;5.30;;;;;;;19.48;36.77;101077.69;5057380;28;20041;-76
2021/01/16 06:21:32;;;;;;;5.72;4.30;;;;;;;19.48;36.88;101084.69;5067786;28;20595;-75
2021/01/16 06:23:59;;;;;;;6.30;4.95;;;;;;;19.48;36.58;101082.94;5062281;28;20100;-73
2021/01/16 06:26:26;;;;;;;6.50;4.47;;;;;;;19.48;36.64;101082.94;5062031;28;20061;-74
2021/01/16 06:28:57;;;;;;;8.27;4.75;;;;;;;19.48;36.63;101085.56;5064929;28;20111;-74
2021/01/16 06:31:28;;;;;;;6.93;4.72;;;;;;;19.48;36.60;101085.56;5057863;28;20048;-73
2021/01/16 06:34:27;;;;;;;8.13;4.93;;;;;;;19.48;36.53;101085.56;5060970;28;20040;-75
2021/01/16 06:37:02;;;;;;;7.07;4.78;;;;;;;19.46;36.68;101082.06;5055431;28;20041;-74
2021/01/16 06:39:33;;;;;;;6.32;4.78;;;;;;;19.46;36.82;101081.22;5060792;28;20029;-73
2021/01/16 06:42:12;;;;;;;7.78;5.38;;;;;;;19.49;36.76;101078.53;5056651;28;20041;-75
2021/01/16 06:44:40;;;;;;;9.48;4.97;;;;;;;19.46;36.70;101084.69;5061925;28;20051;-73
2021/01/16 06:47:06;;;;;;;6.82;4.88;;;;;;;19.46;36.80;101076.81;5058136;28;20025;-76
2021/01/16 06:49:33;;;;;;;5.50;4.38;;;;;;;19.45;36.65;101072.44;5057590;28;20075;-73
2021/01/16 06:52:06;;;;;;;6.18;4.70;;;;;;;19.46;36.58;101076.81;5063966;28;20040;-74
2021/01/16 06:54:37;;;;;;;6.45;4.85;;;;;;;19.46;36.86;101079.44;5054963;28;20063;-75
2021/01/16 06:57:04;;;;;;;6.03;4.70;;;;;;;19.44;36.62;101078.56;5059705;28;20032;-74
2021/01/16 06:59:30;;;;;;;6.63;4.57;;;;;;;19.45;37.04;101080.31;5074556;28;20460;-75
2021/01/16 07:01:58;;;;;;;5.45;4.10;;;;;;;19.44;36.63;101075.94;5060864;28;20032;-73
2021/01/16 07:04:28;;;;;;;5.97;4.70;;;;;;;19.46;36.60;101075.94;5057631;28;20493;-73
2021/01/16 07:06:55;;;;;;;5.82;4.28;;;;;;;19.46;36.59;101074.19;5071005;28;20048;-73
2021/01/16 07:09:23;;;;;;;7.10;4.80;;;;;;;19.45;36.48;101074.19;5060151;28;20093;-74
2021/01/16 07:11:53;;;;;;;5.68;3.95;;;;;;;19.44;36.61;101070.69;5061681;28;20630;-75
2021/01/16 07:14:21;;;;;;;5.45;3.75;;;;;;;19.46;36.71;101073.31;5063287;28;20036;-73
2021/01/16 07:16:49;;;;;;;6.97;4.45;;;;;;;19.45;36.66;101069.81;5059525;28;20509;-74
2021/01/16 07:19:20;;;;;;;7.40;5.05;;;;;;;19.46;36.72;101073.31;5059773;28;20421;-74
2021/01/16 07:21:45;;;;;;;5.80;4.25;;;;;;;19.45;36.62;101064.53;5060746;28;20421;-73
2021/01/16 07:24:12;;;;;;;6.00;4.38;;;;;;;19.46;36.73;101065.44;5064116;28;20043;-74
2021/01/16 07:26:41;;;;;;;6.32;4.78;;;;;;;19.46;36.71;101060.19;5059562;28;20048;-73
2021/01/16 07:29:08;;;;;;;6.05;4.57;;;;;;;19.45;36.39;101059.28;5060206;28;20508;-72
2021/01/16 07:31:40;;;;;;;5.78;4.55;;;;;;;19.44;36.63;101041.78;5063240;28;20500;-73
2021/01/16 07:34:07;;;;;;;5.95;4.13;;;;;;;19.45;36.73;101045.28;5059490;28;20496;-74
2021/01/16 07:36:34;;;;;;;5.75;4.45;;;;;;;19.44;36.60;101048.78;5062582;28;20037;-75
2021/01/16 07:39:08;;;;;;;5.20;4.55;;;;;;;19.45;36.46;101050.53;5064275;28;20434;-74
2021/01/16 07:41:35;;;;;;;9.02;5.30;;;;;;;19.50;36.53;101045.25;5058405;28;20031;-76
2021/01/16 07:44:08;;;;;;;16.73;4.97;;;;;;;19.50;36.45;101042.63;5055480;28;20031;-74
2021/01/16 07:46:41;;;;;;;7.07;4.63;;;;;;;19.52;36.38;101043.50;5054537;28;20028;-73
2021/01/16 07:49:07;;;;;;;6.93;3.90;;;;;;;19.52;36.58;101032.97;5059044;28;20497;-72
2021/01/16 07:51:37;;;;;;;8.95;4.30;;;;;;;19.52;36.61;101033.84;5061380;28;20501;-75
2021/01/16 07:54:10;;;;;;;8.10;3.67;;;;;;;19.53;36.75;101032.97;5054063;28;20035;-77
2021/01/16 07:56:45;;;;;;;7.10;4.40;;;;;;;19.53;36.63;101026.84;5051248;28;20520;-74
2021/01/16 07:59:18;;;;;;;5.15;3.88;;;;;;;19.56;36.38;101029.44;5055760;28;20033;-73
2021/01/16 08:02:02;;;;;;;5.65;4.13;;;;;;;19.56;36.55;101027.69;5061962;28;20107;-73
2021/01/16 08:04:49;;;;;;;5.60;4.07;;;;;;;19.56;36.48;101026.81;5054618;28;20040;-74
2021/01/16 08:07:31;;;;;;;8.80;4.55;;;;;;;19.56;36.53;101019.81;5056512;28;20084;-75
2021/01/16 08:10:00;;;;;;;5.88;4.25;;;;;;;19.57;36.59;101020.66;5056129;28;20037;-73
2021/01/16 08:12:27;;;;;;;5.03;3.90;;;;;;;19.58;36.69;101020.69;5057443;28;20036;-73
2021/01/16 08:15:01;;;;;;;5.45;4.07;;;;;;;19.57;36.44;101018.94;5056419;28;20110;-75
2021/01/16 08:17:32;;;;;;;6.55;4.18;;;;;;;19.60;36.59;101018.03;5060339;28;20032;-76
2021/01/16 08:20:00;;;;;;;8.57;4.32;;;;;;;19.60;36.49;101010.13;5063856;28;20048;-73
2021/01/16 08:22:38;;;;;;;7.85;4.53;;;;;;;19.63;36.66;101010.13;5059679;28;20036;-73
2021/01/16 08:25:14;;;;;;;8.38;4.32;;;;;;;19.66;36.45;101012.75;5066611;28;20497;-74
2021/01/16 08:27:51;;;;;;;8.90;4.93;;;;;;;19.67;36.54;101014.50;5065482;28;20108;-74
2021/01/16 08:30:18;;;;;;;6.22;4.28;;;;;;;19.68;36.62;101010.97;5066915;28;20033;-73
2021/01/16 08:33:07;;;;;;;6.32;4.38;;;;;;;19.67;36.67;101017.13;5067024;28;20086;-75
2021/01/16 08:35:44;;;;;;;5.63;4.28;;;;;;;19.69;36.65;101014.47;5065907;28;20036;-72
2021/01/16 08:38:15;;;;;;;4.80;4.00;;;;;;;19.70;36.67;101011.81;5065921;28;20041;-75
2021/01/16 08:40:43;;;;;;;7.45;4.50;;;;;;;19.72;36.55;101001.31;5063368;28;20025;-76
2021/01/16 08:43:08;;;;;;;6.30;4.55;;;;;;;19.73;36.29;101003.91;5062885;28;20032;-75
2021/01/16 08:45:36;;;;;;;10.68;5.10;;;;;;;19.73;36.49;100998.66;5065898;28;20097;-75
2021/01/16 08:48:02;;;;;;;7.35;4.13;;;;;;;19.75;36.88;100996.88;5064083;28;20505;-73
2021/01/16 08:50:35;;;;;;;6.65;4.20;;;;;;;19.76;36.64;100998.63;5066549;28;20037;-73
2021/01/16 08:53:20;;;;;;;11.10;4.85;;;;;;;19.75;36.60;100994.25;5067010;28;20047;-75
2021/01/16 08:55:46;;;;;;;25.67;4.97;;;;;;;19.77;36.94;100999.53;5069201;28;20033;-75
2021/01/16 08:58:11;;;;;;;6.15;4.65;;;;;;;19.80;36.65;101002.09;5067913;28;20400;-72
2021/01/16 09:00:39;;;;;;;7.22;4.80;;;;;;;19.83;36.73;100994.19;5060550;28;20025;-73
2021/01/16 09:03:13;;;;;;;8.80;4.85;;;;;;;19.85;36.70;100992.44;5061879;28;20032;-75
2021/01/16 09:05:40;;;;;;;8.23;5.45;;;;;;;19.88;36.85;100996.81;5058073;28;20033;-72
2021/01/16 09:08:19;;;;;;;10.27;5.20;;;;;;;19.87;36.80;100987.19;5062532;28;20037;-77
2021/01/16 09:10:45;;;;;;;7.38;4.43;;;;;;;19.89;36.70;100988.94;5063670;28;20032;-75
2021/01/16 09:13:25;;;;;;;10.52;4.70;;;;;;;19.88;36.72;100983.69;5054032;28;20108;-73
2021/01/16 09:15:50;;;;;;;8.38;5.22;;;;;;;19.89;36.81;100982.78;5058575;28;20091;-73
2021/01/16 09:18:16;;;;;;;6.05;4.80;;;;;;;19.89;36.78;100978.44;5060462;28;20040;-73
2021/01/16 09:20:43;;;;;;;9.07;4.75;;;;;;;19.89;36.75;100980.16;5058297;28;20048;-74
2021/01/16 09:23:28;;;;;;;6.43;4.57;;;;;;;19.89;36.75;100981.06;5052083;28;20060;-76
2021/01/16 09:26:05;;;;;;;7.20;5.40;;;;;;;19.90;36.87;100976.66;5057726;28;20033;-75
2021/01/16 09:29:01;;;;;;;8.32;5.47;;;;;;;19.92;36.98;100985.41;5057234;28;20036;-73
2021/01/16 09:31:41;;;;;;;9.30;4.78;;;;;;;19.93;36.90;100969.59;5051857;28;20040;-73
2021/01/16 09:34:08;;;;;;;6.20;4.45;;;;;;;19.94;37.04;100970.50;5066593;28;20033;-72
2021/01/16 09:36:50;;;;;;;6.90;5.07;;;;;;;19.95;37.36;100974.88;5056952;28;20052;-73
2021/01/16 09:39:21;;;;;;;9.07;5.03;;;;;;;19.95;37.37;100980.13;5083105;28;20393;-74
2021/01/16 09:41:50;;;;;;;7.93;4.35;;;;;;;19.93;37.76;100980.13;5073470;28;20036;-74
2021/01/16 09:44:38;;;;;;;8.95;3.75;;;;;;;19.93;37.29;100972.22;5061771;28;20075;-72
2021/01/16 09:47:04;;;;;;;10.10;5.20;;;;;;;19.97;37.46;100965.22;5052206;28;20037;-75
2021/01/16 09:49:50;;;;;;;9.27;4.78;;;;;;;19.98;37.52;100966.06;5053504;28;20064;-73
2021/01/16 09:52:16;;;;;;;10.35;4.82;;;;;;;19.98;37.75;100966.97;5051750;28;20041;-76
2021/01/16 09:54:41;;;;;;;12.98;5.30;;;;;;;19.99;37.57;100963.44;5053123;28;20402;-76
2021/01/16 11:25:14;;;;;;;228.07;138.60;;;;;;;4.91;42.27;100783.66;5067501;28;20963;-35
2021/01/16 11:28:06;;;;;;;158.10;95.88;;;;;;;3.66;41.22;100773.69;5066379;28;20501;-33
2021/01/16 11:30:39;;;;;;;149.55;89.47;;;;;;;3.03;43.98;100773.56;5068274;28;20033;-33
2021/01/16 11:33:11;;;;;;;93.72;57.55;;;;;;;2.68;42.73;100765.59;5068668;28;20041;-33
2021/01/16 11:35:43;;;;;;;88.72;51.15;;;;;;;2.37;45.52;100756.06;5070434;28;20068;-33
2021/01/16 11:38:40;;;;;;;102.70;56.30;;;;;;;2.10;49.39;100747.59;5070540;28;20063;-33
2021/01/16 11:41:12;;;;;;;65.95;35.97;;;;;;;2.00;45.60;100746.13;5068493;28;20051;-33
2021/01/16 11:43:52;;;;;;;61.25;36.63;;;;;;;1.79;46.45;100738.88;5069466;28;20029;-33
2021/01/16 11:46:20;;;;;;;52.83;29.50;;;;;;;1.68;46.46;100742.44;5070512;28;20040;-32
2021/01/16 11:48:53;;;;;;;47.85;29.08;;;;;;;1.62;46.65;100735.28;5070424;28;20032;-33
2021/01/16 11:51:29;;;;;;;41.60;26.20;;;;;;;1.60;47.61;100725.78;5070376;28;20045;-32
2021/01/16 11:53:57;;;;;;;32.95;21.27;;;;;;;1.49;44.93;100725.94;5070768;28;20041;-32
2021/01/16 11:56:25;;;;;;;32.90;19.35;;;;;;;1.43;46.57;100725.59;5070182;28;20041;-33
2021/01/16 11:58:52;;;;;;;25.55;16.05;;;;;;;1.34;47.65;100719.88;5070138;28;20043;-33
2021/01/16 12:01:21;;;;;;;25.55;16.75;;;;;;;1.38;46.70;100716.72;5069947;28;20037;-32
2021/01/16 12:03:54;;;;;;;21.90;14.63;;;;;;;1.38;46.21;100709.06;5068408;28;20024;-33
2021/01/16 12:06:27;;;;;;;20.15;13.43;;;;;;;1.38;47.85;100700.53;5070306;28;20033;-33
2021/01/16 12:08:57;;;;;;;21.50;14.80;;;;;;;1.35;47.20;100693.53;5070098;28;20036;-33
2021/01/16 12:11:28;;;;;;;18.35;12.63;;;;;;;1.34;49.11;100686.66;5070152;28;20116;-33
2021/01/16 12:13:57;;;;;;;15.55;11.52;;;;;;;1.27;47.57;100676.84;5069664;28;20118;-33
2021/01/16 12:16:32;;;;;;;19.23;12.50;;;;;;;1.28;46.77;100681.19;5069583;28;20088;-33
2021/01/16 12:18:58;;;;;;;16.40;11.13;;;;;;;1.24;45.94;100675.00;5069470;28;20036;-33
2021/01/16 12:21:27;;;;;;;41.72;28.63;;;;;;;1.20;47.06;100671.34;5069665;28;20044;-33
2021/01/16 12:23:59;;;;;;;42.72;28.27;;;;;;;1.26;47.27;100654.66;5069326;28;20053;-32
2021/01/16 12:26:32;;;;;;;21.70;14.95;;;;;;;1.28;50.61;100663.31;5068395;28;20105;-33
2021/01/16 12:29:09;;;;;;;25.58;17.42;;;;;;;1.24;49.73;100656.22;5069568;28;20055;-33
2021/01/16 12:31:35;;;;;;;26.15;19.42;;;;;;;1.35;47.12;100642.44;5064271;28;20029;-33
2021/01/16 12:34:07;;;;;;;23.02;16.40;;;;;;;1.39;48.65;100641.00;5011400;28;20057;-33
2021/01/16 12:36:34;;;;;;;21.85;16.38;;;;;;;1.42;47.66;100621.63;4996378;28;20138;-33
2021/01/16 12:39:03;;;;;;;26.40;16.15;;;;;;;1.49;47.72;100618.66;4996907;28;20044;-32
2021/01/16 12:41:36;;;;;;;18.95;13.90;;;;;;;1.48;50.48;100606.66;4995288;28;20034;-33
2021/01/16 12:44:04;;;;;;;21.90;15.13;;;;;;;1.49;48.18;100605.88;4996483;28;20044;-33
2021/01/16 12:46:31;;;;;;;20.30;14.43;;;;;;;1.49;47.91;100612.66;4995534;28;20548;-33
2021/01/16 12:48:58;;;;;;;64.38;34.58;;;;;;;1.49;48.30;100594.78;4995254;28;20081;-33
2021/01/16 12:51:24;;;;;;;140.55;71.53;;;;;;;1.54;47.73;100585.75;4993022;28;20046;-33
2021/01/16 12:53:51;;;;;;;96.82;59.92;;;;;;;1.54;48.44;100580.63;4996477;28;20034;-33
2021/01/16 12:56:21;;;;;;;96.43;62.15;;;;;;;1.54;50.28;100574.63;4996215;28;20489;-33
2021/01/16 12:58:49;;;;;;;127.65;90.32;;;;;;;1.53;48.40;100563.53;4995295;28;20045;-33
2021/01/16 13:01:19;;;;;;;98.80;65.20;;;;;;;1.56;48.68;100561.13;4995300;28;20042;-33
2021/01/16 13:03:48;;;;;;;71.95;45.03;;;;;;;1.54;47.89;100559.28;4996485;28;20088;-33